sensor_id;sensor_type;location;lat;lon;timestamp;pressure;altitude;pressure_sealevel;temperature;humidity
67818;BME280;54614;47.576;7.524;2022-12-29T00:02:23;98281.94;;;21.31;36.83
67818;BME280;54614;47.576;7.524;2022-12-29T00:04:50;98275.75;;;21.31;36.93
67818;BME280;54614;47.576;7.524;2022-12-29T00:07:17;98278.03;;;21.34;36.61
67818;BME280;54614;47.576;7.524;2022-12-29T00:09:43;98269.97;;;21.27;36.66
67818;BME280;54614;47.576;7.524;2022-12-29T00:12:09;98270.59;;;21.29;36.50
67818;BME280;54614;47.576;7.524;2022-12-29T00:14:35;98276.56;;;21.25;36.72
67818;BME280;54614;47.576;7.524;2022-12-29T00:17:20;98265.25;;;21.29;36.88
67818;BME280;54614;47.576;7.524;2022-12-29T00:19:46;98275.34;;;21.27;36.89
67818;BME280;54614;47.576;7.524;2022-12-29T00:22:30;98267.94;;;21.29;36.84
67818;BME280;54614;47.576;7.524;2022-12-29T00:25:15;98263.59;;;21.28;36.72
67818;BME280;54614;47.576;7.524;2022-12-29T00:27:59;98270.19;;;21.26;36.81
67818;BME280;54614;47.576;7.524;2022-12-29T00:30:43;98276.97;;;21.28;36.92
67818;BME280;54614;47.576;7.524;2022-12-29T00:33:33;98267.94;;;21.29;36.29
67818;BME280;54614;47.576;7.524;2022-12-29T00:36:35;98269.56;;;21.23;36.93
67818;BME280;54614;47.576;7.524;2022-12-29T00:39:16;98261.97;;;21.27;36.67
67818;BME280;54614;47.576;7.524;2022-12-29T00:42:07;98266.03;;;21.23;36.98
67818;BME280;54614;47.576;7.524;2022-12-29T00:44:52;98265.22;;;21.22;36.89
67818;BME280;54614;47.576;7.524;2022-12-29T00:47:18;98256.38;;;21.22;36.57
67818;BME280;54614;47.576;7.524;2022-12-29T00:49:43;98259.28;;;21.27;36.74
67818;BME280;54614;47.576;7.524;2022-12-29T00:52:11;98259.88;;;21.22;36.83
67818;BME280;54614;47.576;7.524;2022-12-29T00:54:40;98250.63;;;21.25;36.83
67818;BME280;54614;47.576;7.524;2022-12-29T00:57:09;98256.81;;;21.26;36.83
67818;BME280;54614;47.576;7.524;2022-12-29T00:59:37;98251.44;;;21.26;36.83
67818;BME280;54614;47.576;7.524;2022-12-29T01:02:03;98257.81;;;21.25;36.77
67818;BME280;54614;47.576;7.524;2022-12-29T01:04:29;98259.06;;;21.22;36.70
67818;BME280;54614;47.576;7.524;2022-12-29T01:06:55;98255.09;;;21.18;36.75
67818;BME280;54614;47.576;7.524;2022-12-29T01:09:21;98252.59;;;21.16;36.84
67818;BME280;54614;47.576;7.524;2022-12-29T01:12:08;98261.25;;;21.18;36.95
67818;BME280;54614;47.576;7.524;2022-12-29T01:14:34;98257.38;;;21.21;36.85
67818;BME280;54614;47.576;7.524;2022-12-29T01:17:00;98267.25;;;21.20;36.96
67818;BME280;54614;47.576;7.524;2022-12-29T01:19:27;98263.38;;;21.23;36.72
67818;BME280;54614;47.576;7.524;2022-12-29T01:21:53;98267.50;;;21.26;36.72
67818;BME280;54614;47.576;7.524;2022-12-29T01:24:21;98277.09;;;21.20;36.67
67818;BME280;54614;47.576;7.524;2022-12-29T01:26:48;98281.91;;;21.25;36.75
67818;BME280;54614;47.576;7.524;2022-12-29T01:29:14;98283.28;;;21.20;36.84
67818;BME280;54614;47.576;7.524;2022-12-29T01:31:40;98285.97;;;21.20;36.83
67818;BME280;54614;47.576;7.524;2022-12-29T01:34:06;98283.69;;;21.17;36.63
67818;BME280;54614;47.576;7.524;2022-12-29T01:36:33;98283.69;;;21.17;36.84
67818;BME280;54614;47.576;7.524;2022-12-29T01:38:58;98285.13;;;21.20;36.79
67818;BME280;54614;47.576;7.524;2022-12-29T01:41:25;98282.22;;;21.15;36.98
67818;BME280;54614;47.576;7.524;2022-12-29T01:43:57;98283.88;;;21.16;36.98
67818;BME280;54614;47.576;7.524;2022-12-29T01:46:38;98282.84;;;21.17;36.97
67818;BME280;54614;47.576;7.524;2022-12-29T01:49:24;98277.31;;;21.18;36.76
67818;BME280;54614;47.576;7.524;2022-12-29T01:52:00;98286.56;;;21.16;36.93
67818;BME280;54614;47.576;7.524;2022-12-29T01:54:49;98287.81;;;21.20;36.79
67818;BME280;54614;47.576;7.524;2022-12-29T01:57:36;98283.94;;;21.22;36.65
67818;BME280;54614;47.576;7.524;2022-12-29T02:00:10;98281.28;;;21.22;36.86
67818;BME280;54614;47.576;7.524;2022-12-29T02:02:37;98289.41;;;21.14;37.15
67818;BME280;54614;47.576;7.524;2022-12-29T02:05:10;98292.97;;;21.21;36.76
67818;BME280;54614;47.576;7.524;2022-12-29T02:07:39;98282.66;;;21.18;36.91
67818;BME280;54614;47.576;7.524;2022-12-29T02:10:06;98283.44;;;21.12;37.00
67818;BME280;54614;47.576;7.524;2022-12-29T02:12:32;98285.53;;;21.17;36.75
67818;BME280;54614;47.576;7.524;2022-12-29T02:15:02;98285.78;;;21.22;36.60
67818;BME280;54614;47.576;7.524;2022-12-29T02:17:38;98285.91;;;21.14;36.83
67818;BME280;54614;47.576;7.524;2022-12-29T02:26:58;98281.84;;;21.18;36.69
67818;BME280;54614;47.576;7.524;2022-12-29T02:41:34;98259.19;;;21.14;36.93
67818;BME280;54614;47.576;7.524;2022-12-29T02:44:25;98265.38;;;21.21;36.50
67818;BME280;54614;47.576;7.524;2022-12-29T02:52:46;98256.41;;;21.29;36.20
67818;BME280;54614;47.576;7.524;2022-12-29T02:55:15;98259.88;;;21.22;36.39
67818;BME280;54614;47.576;7.524;2022-12-29T02:57:41;98263.19;;;21.25;36.31
67818;BME280;54614;47.576;7.524;2022-12-29T03:00:15;98264.63;;;21.27;36.10
67818;BME280;54614;47.576;7.524;2022-12-29T03:03:28;98250.81;;;21.23;36.22
67818;BME280;54614;47.576;7.524;2022-12-29T03:06:35;98255.09;;;21.18;36.03
67818;BME280;54614;47.576;7.524;2022-12-29T03:09:29;98254.25;;;21.17;36.12
67818;BME280;54614;47.576;7.524;2022-12-29T03:15:39;98249.50;;;21.13;36.08
67818;BME280;54614;47.576;7.524;2022-12-29T03:19:02;98258.34;;;21.13;35.93
67818;BME280;54614;47.576;7.524;2022-12-29T03:21:48;98248.03;;;21.10;35.97
67818;BME280;54614;47.576;7.524;2022-12-29T03:24:39;98246.59;;;21.08;36.25
67818;BME280;54614;47.576;7.524;2022-12-29T03:27:11;98243.72;;;21.09;36.18
67818;BME280;54614;47.576;7.524;2022-12-29T03:29:56;98240.63;;;21.06;36.21
67818;BME280;54614;47.576;7.524;2022-12-29T03:32:30;98236.44;;;20.97;36.77
67818;BME280;54614;47.576;7.524;2022-12-29T03:34:58;98228.63;;;20.95;36.92
67818;BME280;54614;47.576;7.524;2022-12-29T03:37:35;98217.31;;;20.93;36.69
67818;BME280;54614;47.576;7.524;2022-12-29T03:40:04;98228.22;;;20.98;36.74
67818;BME280;54614;47.576;7.524;2022-12-29T03:42:34;98223.31;;;21.02;36.59
67818;BME280;54614;47.576;7.524;2022-12-29T03:45:01;98216.78;;;21.11;36.36
67818;BME280;54614;47.576;7.524;2022-12-29T03:47:27;98218.81;;;21.09;36.21
67818;BME280;54614;47.576;7.524;2022-12-29T03:49:53;98220.03;;;21.06;36.64
67818;BME280;54614;47.576;7.524;2022-12-29T03:52:19;98219.00;;;21.01;36.65
67818;BME280;54614;47.576;7.524;2022-12-29T03:54:45;98217.97;;;21.02;36.66
67818;BME280;54614;47.576;7.524;2022-12-29T03:57:11;98213.63;;;21.01;36.66
67818;BME280;54614;47.576;7.524;2022-12-29T03:59:37;98217.13;;;21.01;36.55
67818;BME280;54614;47.576;7.524;2022-12-29T04:02:02;98217.78;;;21.03;36.77
67818;BME280;54614;47.576;7.524;2022-12-29T04:04:28;98217.97;;;21.02;36.81
67818;BME280;54614;47.576;7.524;2022-12-29T04:06:54;98224.72;;;20.98;36.66
67818;BME280;54614;47.576;7.524;2022-12-29T04:09:20;98212.63;;;21.02;36.64
67818;BME280;54614;47.576;7.524;2022-12-29T04:11:46;98218.63;;;21.10;36.26
67818;BME280;54614;47.576;7.524;2022-12-29T04:14:12;98216.19;;;21.15;36.19
67818;BME280;54614;47.576;7.524;2022-12-29T04:16:38;98211.22;;;21.12;36.34
67818;BME280;54614;47.576;7.524;2022-12-29T04:19:06;98209.75;;;21.03;36.70
67818;BME280;54614;47.576;7.524;2022-12-29T04:21:32;98208.28;;;21.01;36.63
67818;BME280;54614;47.576;7.524;2022-12-29T04:23:58;98203.78;;;21.01;36.73
67818;BME280;54614;47.576;7.524;2022-12-29T04:26:25;98204.59;;;21.02;36.63
67818;BME280;54614;47.576;7.524;2022-12-29T04:28:51;98211.78;;;21.01;36.89
67818;BME280;54614;47.576;7.524;2022-12-29T04:31:17;98211.16;;;20.99;36.72
67818;BME280;54614;47.576;7.524;2022-12-29T04:33:43;98209.50;;;20.98;36.70
67818;BME280;54614;47.576;7.524;2022-12-29T04:36:09;98217.94;;;20.95;37.01
67818;BME280;54614;47.576;7.524;2022-12-29T04:38:35;98206.88;;;21.05;36.58
67818;BME280;54614;47.576;7.524;2022-12-29T04:41:02;98213.25;;;21.04;36.44
67818;BME280;54614;47.576;7.524;2022-12-29T04:43:28;98219.25;;;21.12;36.25
67818;BME280;54614;47.576;7.524;2022-12-29T04:45:54;98212.00;;;21.00;36.74
67818;BME280;54614;47.576;7.524;2022-12-29T04:48:20;98206.25;;;21.03;36.65
67818;BME280;54614;47.576;7.524;2022-12-29T04:50:48;98190.59;;;21.00;36.63
67818;BME280;54614;47.576;7.524;2022-12-29T04:53:16;98199.44;;;21.00;36.69
67818;BME280;54614;47.576;7.524;2022-12-29T04:55:42;98194.94;;;21.01;36.62
67818;BME280;54614;47.576;7.524;2022-12-29T04:58:08;98187.13;;;21.06;36.65
67818;BME280;54614;47.576;7.524;2022-12-29T05:00:34;98191.44;;;21.00;nan
67818;BME280;54614;47.576;7.524;2022-12-29T05:03:01;98179.91;;;21.00;36.92
67818;BME280;54614;47.576;7.524;2022-12-29T05:05:27;98178.47;;;20.97;36.81
67818;BME280;54614;47.576;7.524;2022-12-29T05:07:52;98180.31;;;20.97;36.65
67818;BME280;54614;47.576;7.524;2022-12-29T05:10:18;98178.84;;;20.94;36.76
67818;BME280;54614;47.576;7.524;2022-12-29T05:12:44;98184.00;;;20.96;36.72
67818;BME280;54614;47.576;7.524;2022-12-29T05:15:11;98187.09;;;20.99;36.82
67818;BME280;54614;47.576;7.524;2022-12-29T05:17:37;98181.56;;;21.01;36.49
67818;BME280;54614;47.576;7.524;2022-12-29T05:20:05;98183.81;;;20.97;37.04
67818;BME280;54614;47.576;7.524;2022-12-29T05:22:31;98186.47;;;20.97;36.83
67818;BME280;54614;47.576;7.524;2022-12-29T05:24:57;98182.75;;;20.91;36.87
67818;BME280;54614;47.576;7.524;2022-12-29T05:27:23;98175.94;;;20.89;37.02
67818;BME280;54614;47.576;7.524;2022-12-29T05:29:49;98176.19;;;20.94;36.99
67818;BME280;54614;47.576;7.524;2022-12-29T05:32:15;98169.63;;;21.03;36.63
67818;BME280;54614;47.576;7.524;2022-12-29T05:34:40;98176.59;;;20.98;36.56
67818;BME280;54614;47.576;7.524;2022-12-29T05:37:06;98179.28;;;20.98;36.58
67818;BME280;54614;47.576;7.524;2022-12-29T05:39:32;98178.66;;;20.96;36.83
67818;BME280;54614;47.576;7.524;2022-12-29T05:41:58;98164.69;;;21.00;36.63
67818;BME280;54614;47.576;7.524;2022-12-29T05:44:23;98167.38;;;21.00;36.81
67818;BME280;54614;47.576;7.524;2022-12-29T05:46:49;98172.91;;;20.99;36.63
67818;BME280;54614;47.576;7.524;2022-12-29T05:49:16;98172.91;;;20.99;36.88
67818;BME280;54614;47.576;7.524;2022-12-29T05:51:42;98163.25;;;20.98;36.88
67818;BME280;54614;47.576;7.524;2022-12-29T05:54:08;98170.44;;;20.97;36.78
67818;BME280;54614;47.576;7.524;2022-12-29T05:56:34;98166.94;;;20.97;37.05
67818;BME280;54614;47.576;7.524;2022-12-29T05:58:59;98164.69;;;21.00;36.58
67818;BME280;54614;47.576;7.524;2022-12-29T06:01:25;98165.31;;;21.02;36.44
67818;BME280;54614;47.576;7.524;2022-12-29T06:03:51;98153.19;;;21.06;36.31
67818;BME280;54614;47.576;7.524;2022-12-29T06:06:18;98156.88;;;20.99;36.74
67818;BME280;54614;47.576;7.524;2022-12-29T06:08:43;98153.59;;;21.03;36.79
67818;BME280;54614;47.576;7.524;2022-12-29T06:11:09;98155.84;;;21.00;36.78
67818;BME280;54614;47.576;7.524;2022-12-29T06:13:35;98150.94;;;21.03;36.62
67818;BME280;54614;47.576;7.524;2022-12-29T06:16:02;98153.78;;;21.02;36.78
67818;BME280;54614;47.576;7.524;2022-12-29T06:18:28;98140.63;;;21.00;36.72
67818;BME280;54614;47.576;7.524;2022-12-29T06:20:54;98136.09;;;21.01;36.81
67818;BME280;54614;47.576;7.524;2022-12-29T06:23:24;98128.69;;;20.96;36.80
67818;BME280;54614;47.576;7.524;2022-12-29T06:25:50;98137.13;;;21.00;36.66
67818;BME280;54614;47.576;7.524;2022-12-29T06:28:16;98133.47;;;21.07;36.39
67818;BME280;54614;47.576;7.524;2022-12-29T06:30:47;98130.78;;;21.07;36.40
67818;BME280;54614;47.576;7.524;2022-12-29T06:33:13;98135.09;;;21.02;36.62
67818;BME280;54614;47.576;7.524;2022-12-29T06:35:39;98137.75;;;21.02;36.80
67818;BME280;54614;47.576;7.524;2022-12-29T06:38:05;98142.28;;;21.01;36.70
67818;BME280;54614;47.576;7.524;2022-12-29T06:40:31;98143.50;;;20.99;36.76
67818;BME280;54614;47.576;7.524;2022-12-29T06:42:57;98139.59;;;21.01;36.44
67818;BME280;54614;47.576;7.524;2022-12-29T06:45:24;98147.19;;;20.98;36.72
67818;BME280;54614;47.576;7.524;2022-12-29T06:47:50;98150.25;;;20.95;36.96
67818;BME280;54614;47.576;7.524;2022-12-29T06:50:15;98150.69;;;20.98;36.82
67818;BME280;54614;47.576;7.524;2022-12-29T06:52:41;98144.56;;;21.04;36.62
67818;BME280;54614;47.576;7.524;2022-12-29T06:55:07;98140.88;;;21.12;36.16
67818;BME280;54614;47.576;7.524;2022-12-29T06:57:33;98156.53;;;21.15;36.63
67818;BME280;54614;47.576;7.524;2022-12-29T06:59:59;98149.28;;;21.02;36.78
67818;BME280;54614;47.576;7.524;2022-12-29T07:02:25;98152.34;;;20.99;36.77
67818;BME280;54614;47.576;7.524;2022-12-29T07:04:52;98158.50;;;21.00;36.84
67818;BME280;54614;47.576;7.524;2022-12-29T07:07:20;98165.31;;;21.02;36.72
67818;BME280;54614;47.576;7.524;2022-12-29T07:09:46;98155.81;;;20.93;36.97
67818;BME280;54614;47.576;7.524;2022-12-29T07:12:12;98169.81;;;20.95;36.73
67818;BME280;54614;47.576;7.524;2022-12-29T07:14:38;98177.59;;;20.90;36.98
67818;BME280;54614;47.576;7.524;2022-12-29T07:17:04;98183.84;;;21.04;36.54
67818;BME280;54614;47.576;7.524;2022-12-29T07:19:32;98178.88;;;21.01;36.73
67818;BME280;54614;47.576;7.524;2022-12-29T07:21:58;98190.84;;;21.05;36.62
67818;BME280;54614;47.576;7.524;2022-12-29T07:24:24;98191.69;;;21.12;36.43
67818;BME280;54614;47.576;7.524;2022-12-29T07:26:51;98193.72;;;21.03;36.52
67818;BME280;54614;47.576;7.524;2022-12-29T07:29:18;98192.88;;;21.03;36.57
67818;BME280;54614;47.576;7.524;2022-12-29T07:31:44;98193.66;;;20.97;36.70
67818;BME280;54614;47.576;7.524;2022-12-29T07:34:09;98189.38;;;21.02;36.60
67818;BME280;54614;47.576;7.524;2022-12-29T07:36:35;98186.66;;;20.96;36.84
67818;BME280;54614;47.576;7.524;2022-12-29T07:39:02;98196.16;;;20.98;36.95
67818;BME280;54614;47.576;7.524;2022-12-29T07:41:28;98200.06;;;21.02;36.64
67818;BME280;54614;47.576;7.524;2022-12-29T07:43:54;98202.31;;;20.99;36.80
67818;BME280;54614;47.576;7.524;2022-12-29T07:46:20;98199.47;;;21.07;36.77
67818;BME280;54614;47.576;7.524;2022-12-29T07:48:46;98209.78;;;21.10;36.32
67818;BME280;54614;47.576;7.524;2022-12-29T07:51:11;98215.75;;;21.12;36.67
67818;BME280;54614;47.576;7.524;2022-12-29T07:53:37;98208.72;;;21.04;36.48
67818;BME280;54614;47.576;7.524;2022-12-29T07:56:03;98216.75;;;21.04;36.65
67818;BME280;54614;47.576;7.524;2022-12-29T07:58:29;98214.84;;;20.98;36.80
67818;BME280;54614;47.576;7.524;2022-12-29T08:00:56;98218.56;;;20.97;36.95
67818;BME280;54614;47.576;7.524;2022-12-29T08:03:23;98215.88;;;20.97;36.85
67818;BME280;54614;47.576;7.524;2022-12-29T08:05:49;98215.44;;;20.94;36.69
67818;BME280;54614;47.576;7.524;2022-12-29T08:08:15;98211.16;;;20.99;nan
67818;BME280;54614;47.576;7.524;2022-12-29T08:10:41;98216.72;;;20.98;36.70
67818;BME280;54614;47.576;7.524;2022-12-29T08:13:10;98216.50;;;20.99;36.90
67818;BME280;54614;47.576;7.524;2022-12-29T08:15:38;98219.41;;;21.04;36.54
67818;BME280;54614;47.576;7.524;2022-12-29T08:18:04;98230.38;;;21.16;36.25
67818;BME280;54614;47.576;7.524;2022-12-29T08:20:30;98239.63;;;21.13;36.23
67818;BME280;54614;47.576;7.524;2022-12-29T08:22:56;98240.41;;;21.07;36.55
67818;BME280;54614;47.576;7.524;2022-12-29T08:25:22;98239.59;;;21.07;36.57
67818;BME280;54614;47.576;7.524;2022-12-29T08:27:48;98245.53;;;21.02;36.74
67818;BME280;54614;47.576;7.524;2022-12-29T08:30:14;98255.44;;;21.08;36.59
67818;BME280;54614;47.576;7.524;2022-12-29T08:32:40;98256.47;;;21.07;36.79
67818;BME280;54614;47.576;7.524;2022-12-29T08:35:06;98259.72;;;21.03;36.72
67818;BME280;54614;47.576;7.524;2022-12-29T08:37:33;98252.13;;;21.06;36.66
67818;BME280;54614;47.576;7.524;2022-12-29T08:40:02;98254.63;;;21.08;36.74
67818;BME280;54614;47.576;7.524;2022-12-29T08:42:31;98262.06;;;21.12;36.35
67818;BME280;54614;47.576;7.524;2022-12-29T08:45:00;98261.06;;;21.20;36.21
67818;BME280;54614;47.576;7.524;2022-12-29T08:47:26;98270.09;;;21.19;36.36
67818;BME280;54614;47.576;7.524;2022-12-29T08:49:52;98262.44;;;21.09;36.67
67818;BME280;54614;47.576;7.524;2022-12-29T08:52:19;98259.13;;;21.07;36.67
67818;BME280;54614;47.576;7.524;2022-12-29T08:54:44;98255.41;;;21.02;36.86
67818;BME280;54614;47.576;7.524;2022-12-29T08:57:10;98265.06;;;21.03;36.82
67818;BME280;54614;47.576;7.524;2022-12-29T08:59:36;98257.88;;;21.03;36.87
67818;BME280;54614;47.576;7.524;2022-12-29T09:02:02;98264.09;;;21.10;36.75
67818;BME280;54614;47.576;7.524;2022-12-29T09:04:28;98258.31;;;21.07;36.64
67818;BME280;54614;47.576;7.524;2022-12-29T09:06:54;98261.63;;;21.09;36.79
67818;BME280;54614;47.576;7.524;2022-12-29T09:09:21;98259.38;;;21.12;36.57
67818;BME280;54614;47.576;7.524;2022-12-29T09:11:47;98254.66;;;21.14;36.51
67818;BME280;54614;47.576;7.524;2022-12-29T09:14:13;98261.22;;;21.12;36.59
67818;BME280;54614;47.576;7.524;2022-12-29T09:16:39;98268.38;;;21.05;36.57
67818;BME280;54614;47.576;7.524;2022-12-29T09:19:05;98273.53;;;21.06;36.77
67818;BME280;54614;47.576;7.524;2022-12-29T09:21:31;98273.97;;;21.10;36.52
67818;BME280;54614;47.576;7.524;2022-12-29T09:23:57;98282.81;;;21.10;36.66
67818;BME280;54614;47.576;7.524;2022-12-29T09:26:23;98276.84;;;21.08;36.71
67818;BME280;54614;47.576;7.524;2022-12-29T09:28:49;98288.75;;;21.06;36.67
67818;BME280;54614;47.576;7.524;2022-12-29T09:31:15;98294.53;;;21.09;36.79
67818;BME280;54614;47.576;7.524;2022-12-29T09:33:41;98292.88;;;21.08;36.82
67818;BME280;54614;47.576;7.524;2022-12-29T09:36:08;98293.13;;;21.13;36.80
67818;BME280;54614;47.576;7.524;2022-12-29T09:38:34;98288.41;;;21.15;36.72
67818;BME280;54614;47.576;7.524;2022-12-29T09:41:42;98304.63;;;21.14;36.48
67818;BME280;54614;47.576;7.524;2022-12-29T09:47:18;98306.84;;;21.04;36.89
67818;BME280;54614;47.576;7.524;2022-12-29T09:55:56;98305.38;;;21.01;36.86
67818;BME280;54614;47.576;7.524;2022-12-29T09:58:35;98303.78;;;21.07;36.82
67818;BME280;54614;47.576;7.524;2022-12-29T10:01:05;98308.50;;;21.05;36.80
67818;BME280;54614;47.576;7.524;2022-12-29T10:03:50;98308.97;;;21.15;36.59
67818;BME280;54614;47.576;7.524;2022-12-29T10:06:51;98304.88;;;21.19;36.41
67818;BME280;54614;47.576;7.524;2022-12-29T10:24:10;98304.59;;;21.07;36.79
67818;BME280;54614;47.576;7.524;2022-12-29T10:26:43;98293.47;;;21.04;36.86
67818;BME280;54614;47.576;7.524;2022-12-29T10:29:28;98292.09;;;21.14;36.55
67818;BME280;54614;47.576;7.524;2022-12-29T10:32:06;98277.06;;;21.13;36.63
67818;BME280;54614;47.576;7.524;2022-12-29T10:34:39;98277.09;;;21.20;36.59
67818;BME280;54614;47.576;7.524;2022-12-29T10:40:34;98276.19;;;21.06;36.74
67818;BME280;54614;47.576;7.524;2022-12-29T10:43:25;98274.34;;;21.07;36.76
67818;BME280;54614;47.576;7.524;2022-12-29T10:46:03;98277.84;;;21.07;36.92
67818;BME280;54614;47.576;7.524;2022-12-29T10:48:34;98264.47;;;21.07;36.91
67818;BME280;54614;47.576;7.524;2022-12-29T10:51:04;98266.53;;;21.05;37.03
67818;BME280;54614;47.576;7.524;2022-12-29T10:53:41;98257.47;;;21.06;36.72
67818;BME280;54614;47.576;7.524;2022-12-29T10:56:25;98255.25;;;21.10;36.83
67818;BME280;54614;47.576;7.524;2022-12-29T10:58:57;98257.97;;;21.16;36.59
67818;BME280;54614;47.576;7.524;2022-12-29T11:01:37;98252.41;;;21.18;36.77
67818;BME280;54614;47.576;7.524;2022-12-29T11:06:57;98249.66;;;21.05;37.04
67818;BME280;54614;47.576;7.524;2022-12-29T11:09:36;98256.28;;;21.09;36.88
67818;BME280;54614;47.576;7.524;2022-12-29T11:12:29;98251.94;;;21.08;36.82
67818;BME280;54614;47.576;7.524;2022-12-29T11:15:14;98250.09;;;21.08;36.90
67818;BME280;54614;47.576;7.524;2022-12-29T11:17:53;98245.75;;;21.07;37.06
67818;BME280;54614;47.576;7.524;2022-12-29T11:20:36;98242.66;;;21.04;36.91
67818;BME280;54614;47.576;7.524;2022-12-29T11:28:42;98252.22;;;21.19;36.72
67818;BME280;54614;47.576;7.524;2022-12-29T11:31:10;98254.81;;;21.06;36.97
67818;BME280;54614;47.576;7.524;2022-12-29T11:33:40;98252.13;;;21.06;36.96
67818;BME280;54614;47.576;7.524;2022-12-29T11:36:11;98258.50;;;21.05;36.90
67818;BME280;54614;47.576;7.524;2022-12-29T11:38:42;98244.31;;;21.05;36.68
67818;BME280;54614;47.576;7.524;2022-12-29T11:41:13;98252.13;;;21.06;37.07
67818;BME280;54614;47.576;7.524;2022-12-29T11:43:44;98234.03;;;21.08;36.92
67818;BME280;54614;47.576;7.524;2022-12-29T11:46:34;98224.59;;;21.12;36.97
67818;BME280;54614;47.576;7.524;2022-12-29T11:49:02;98221.31;;;21.10;36.92
67818;BME280;54614;47.576;7.524;2022-12-29T11:51:38;98222.16;;;21.17;36.90
67818;BME280;54614;47.576;7.524;2022-12-29T11:54:17;98219.06;;;21.14;36.92
67818;BME280;54614;47.576;7.524;2022-12-29T11:56:45;98216.25;;;21.22;36.88
67818;BME280;54614;47.576;7.524;2022-12-29T11:59:41;98201.03;;;21.22;36.91
67818;BME280;54614;47.576;7.524;2022-12-29T12:05:22;98205.03;;;21.05;37.22
67818;BME280;54614;47.576;7.524;2022-12-29T12:07:54;98206.69;;;21.06;37.09
67818;BME280;54614;47.576;7.524;2022-12-29T12:10:32;98211.03;;;21.14;37.13
67818;BME280;54614;47.576;7.524;2022-12-29T12:16:50;98185.31;;;21.13;36.96
67818;BME280;54614;47.576;7.524;2022-12-29T12:19:41;98181.19;;;21.10;37.03
67818;BME280;54614;47.576;7.524;2022-12-29T12:22:21;98188.22;;;21.18;36.97
67818;BME280;54614;47.576;7.524;2022-12-29T12:24:57;98183.91;;;21.17;37.01
67818;BME280;54614;47.576;7.524;2022-12-29T12:27:41;98188.41;;;21.16;37.02
67818;BME280;54614;47.576;7.524;2022-12-29T12:30:17;98179.16;;;21.19;36.85
67818;BME280;54614;47.576;7.524;2022-12-29T12:41:12;98172.59;;;21.21;36.86
67818;BME280;54614;47.576;7.524;2022-12-29T12:43:57;98168.72;;;21.24;36.99
67818;BME280;54614;47.576;7.524;2022-12-29T12:46:37;98164.41;;;21.23;36.72
67818;BME280;54614;47.576;7.524;2022-12-29T12:49:41;98162.16;;;21.27;36.74
67818;BME280;54614;47.576;7.524;2022-12-29T13:04:17;98157.97;;;21.17;36.92
67818;BME280;54614;47.576;7.524;2022-12-29T13:07:22;98155.31;;;21.17;37.21
67818;BME280;54614;47.576;7.524;2022-12-29T13:13:30;98170.94;;;21.20;37.07
67818;BME280;54614;47.576;7.524;2022-12-29T13:16:27;98165.03;;;21.25;37.06
67818;BME280;54614;47.576;7.524;2022-12-29T13:22:04;98160.63;;;21.11;37.10
67818;BME280;54614;47.576;7.524;2022-12-29T13:28:12;98143.56;;;21.18;37.05
67818;BME280;54614;47.576;7.524;2022-12-29T13:31:15;98148.31;;;21.16;37.24
67818;BME280;54614;47.576;7.524;2022-12-29T13:37:02;98128.34;;;21.12;37.24
67818;BME280;54614;47.576;7.524;2022-12-29T13:39:44;98140.91;;;21.18;37.26
67818;BME280;54614;47.576;7.524;2022-12-29T13:42:12;98145.84;;;21.21;36.97
67818;BME280;54614;47.576;7.524;2022-12-29T13:45:17;98141.09;;;21.17;37.09
67818;BME280;54614;47.576;7.524;2022-12-29T13:48:17;98150.13;;;21.09;37.18
67818;BME280;54614;47.576;7.524;2022-12-29T13:50:54;98145.81;;;21.08;37.38
67818;BME280;54614;47.576;7.524;2022-12-29T13:56:42;98142.31;;;21.14;37.22
67818;BME280;54614;47.576;7.524;2022-12-29T14:00:24;98146.03;;;21.13;37.08
67818;BME280;54614;47.576;7.524;2022-12-29T14:08:03;98160.44;;;21.19;37.32
67818;BME280;54614;47.576;7.524;2022-12-29T14:10:34;98154.91;;;21.20;37.06
67818;BME280;54614;47.576;7.524;2022-12-29T14:13:13;98154.84;;;21.07;37.23
67818;BME280;54614;47.576;7.524;2022-12-29T14:15:44;98159.16;;;21.08;37.29
67818;BME280;54614;47.576;7.524;2022-12-29T14:18:17;98167.81;;;21.10;37.25
67818;BME280;54614;47.576;7.524;2022-12-29T14:21:09;98162.28;;;21.12;37.38
67818;BME280;54614;47.576;7.524;2022-12-29T14:23:48;98177.88;;;21.08;37.35
67818;BME280;54614;47.576;7.524;2022-12-29T14:28:55;98176.44;;;21.06;37.28
67818;BME280;54614;47.576;7.524;2022-12-29T14:39:37;98186.75;;;21.09;37.20
67818;BME280;54614;47.576;7.524;2022-12-29T14:44:53;98203.22;;;21.12;37.44
67818;BME280;54614;47.576;7.524;2022-12-29T14:47:33;98206.06;;;21.04;37.45
67818;BME280;54614;47.576;7.524;2022-12-29T14:50:40;98203.22;;;21.12;37.24
67818;BME280;54614;47.576;7.524;2022-12-29T14:56:15;98208.13;;;21.09;37.32
67818;BME280;54614;47.576;7.524;2022-12-29T14:58:48;98216.78;;;21.11;37.31
67818;BME280;54614;47.576;7.524;2022-12-29T15:01:47;98220.91;;;21.13;37.24
67818;BME280;54614;47.576;7.524;2022-12-29T15:04:31;98216.38;;;21.14;37.23
67818;BME280;54614;47.576;7.524;2022-12-29T15:07:00;98216.97;;;21.09;37.15
67818;BME280;54614;47.576;7.524;2022-12-29T15:15:25;98211.19;;;21.06;37.26
67818;BME280;54614;47.576;7.524;2022-12-29T15:17:52;98220.03;;;21.06;37.12
67818;BME280;54614;47.576;7.524;2022-12-29T15:20:30;98213.91;;;21.12;37.16
67818;BME280;54614;47.576;7.524;2022-12-29T15:23:10;98213.69;;;21.07;37.22
67818;BME280;54614;47.576;7.524;2022-12-29T15:25:50;98221.31;;;21.10;37.11
67818;BME280;54614;47.576;7.524;2022-12-29T15:28:20;98221.53;;;21.15;37.20
67818;BME280;54614;47.576;7.524;2022-12-29T15:30:57;98223.78;;;21.12;37.06
67818;BME280;54614;47.576;7.524;2022-12-29T15:33:28;98212.66;;;21.08;37.17
67818;BME280;54614;47.576;7.524;2022-12-29T15:35:57;98216.56;;;21.06;37.24
67818;BME280;54614;47.576;7.524;2022-12-29T15:38:30;98220.03;;;21.06;37.22
67818;BME280;54614;47.576;7.524;2022-12-29T15:41:05;98223.16;;;21.10;37.25
67818;BME280;54614;47.576;7.524;2022-12-29T15:46:24;98214.84;;;20.98;37.40